Flight Track Log - Related Links

Times and Time Zones

All times are in EDT time to prevent confusion due to time zone crossing. See the N968CD flight status page for this flight to view local times or setup timezone preferences in your user account.

Time Position Orientation Groundspeed Altitude Reporting Facility
EDT Latitude Longitude Course Direction KTS MPH feet Rate Location/Type
Mon 03:17:32 PM 33.5725 -86.7414 59° Northeast 121 139 1,100  Level Atlanta Center
Mon 03:18:15 PM 33.5836 -86.7144 64° Northeast 123 142 1,500 619 Climbing Atlanta Center
Mon 03:19:09 PM 33.6133 -86.6903 34° Northeast 139 160 2,100 678 Climbing Atlanta Center
Mon 03:20:10 PM 33.6450 -86.6689 29° Northeast 136 157 2,800 678 Climbing Atlanta Center
Mon 03:21:04 PM 33.6706 -86.6447 38° Northeast 130 150 3,400 730 Climbing Atlanta Center
Mon 03:22:05 PM 33.7025 -86.6231 29° Northeast 130 150 4,200 689 Climbing Atlanta Center
Mon 03:23:00 PM 33.5999 -86.4883 59° Northeast  Level Estimated
Mon 03:23:06 PM 33.7364 -86.5992 30° Northeast 132 152 4,800  Level Atlanta Center
Mon 03:24:09 PM 33.7619 -86.5675 46° Northeast 140 161 5,500 683 Climbing Atlanta Center
Mon 03:25:09 PM 33.7794 -86.5281 62° Northeast 126 145 6,200 650 Climbing Atlanta Center
Mon 03:26:09 PM 33.7947 -86.4961 60° Northeast 116 133 6,800 350 Climbing Atlanta Center
Mon 03:27:09 PM 33.8039 -86.4539 75° East 121 139 6,900 100 Climbing Atlanta Center
Mon 03:28:09 PM 33.8175 -86.4042 72° East 135 155 7,000 50 Climbing Atlanta Center
Mon 03:29:09 PM 33.8331 -86.3569 68° East 142 163 7,000  Level Atlanta Center
Mon 03:30:09 PM 33.8444 -86.3047 75° East 155 178 7,000  Level Atlanta Center
Mon 03:31:09 PM 33.8600 -86.2503 71° East 155 178 7,000  Level Atlanta Center
Mon 03:32:09 PM 33.8733 -86.2031 71° East 160 184 7,000  Level Atlanta Center
Mon 03:33:09 PM 33.8847 -86.1533 75° East 154 177 7,000  Level Atlanta Center
Mon 03:34:09 PM 33.9003 -86.0961 72° East 159 183 7,000  Level Atlanta Center
Mon 03:35:09 PM 33.9136 -86.0464 72° East 159 183 7,000  Level Atlanta Center
Mon 03:36:09 PM 33.9269 -85.9942 73° East 159 183 7,000  Level Atlanta Center
Mon 03:37:09 PM 33.9403 -85.9419 73° East 165 190 7,000  Level Atlanta Center
Mon 03:38:09 PM 33.9556 -85.8894 71° East 165 190 7,000  Level Atlanta Center
Mon 03:39:09 PM 33.9669 -85.8347 76° East 165 190 7,000 50 Level Atlanta Center
Mon 03:40:09 PM 33.9739 -85.7797 81° East 165 190 7,100 50 Climbing Atlanta Center
Mon 03:41:09 PM 33.9706 -85.7244 94° East 159 183 7,100  Level Atlanta Center
Mon 03:42:09 PM 33.9711 -85.6769 89° East 159 183 7,100  Level Atlanta Center
Mon 03:43:09 PM 33.9700 -85.6194 91° East 159 183 7,100  Level Atlanta Center
Mon 03:44:09 PM 33.9686 -85.5642 92° East 159 183 7,100 -100 Level Atlanta Center
Mon 03:45:09 PM 33.9692 -85.5092 89° East 159 183 6,900 -350 Descending Atlanta Center
Mon 03:46:09 PM 33.9636 -85.4489 96° East 165 190 6,400 -500 Descending Atlanta Center
Mon 03:47:09 PM 33.9642 -85.3914 89° East 165 190 5,900 -500 Descending Atlanta Center
Mon 03:48:09 PM 33.9650 -85.3286 89° East 172 198 5,400 -400 Descending Atlanta Center
Mon 03:49:09 PM 33.9614 -85.2636 94° East 178 205 5,100 -150 Descending Atlanta Center
Mon 03:50:09 PM 33.9597 -85.2083 92° East 172 198 5,100  Level Atlanta Center
Mon 03:51:09 PM 33.9603 -85.1533 89° East 172 198 5,100  Level Atlanta Center
Mon 03:52:09 PM 33.9589 -85.0983 92° East 160 184 5,100  Level Atlanta Center
Mon 03:53:09 PM 33.9572 -85.0456 92° East 160 184 5,100  Level Atlanta Center
Mon 03:54:09 PM 33.9556 -84.9906 92° East 160 184 5,100  Level Atlanta Center
Mon 03:55:09 PM 33.9789 -84.9406 61° Northeast 155 178 5,100  Level Atlanta Center
Mon 03:56:09 PM 33.9939 -84.8931 69° East 155 178 5,100  Level Atlanta Center
Mon 03:57:09 PM 33.9817 -84.8406 106° East 145 167 5,100 -30 Level Atlanta Center
Mon 03:59:27 PM 33.9500 -84.7167 107° East 161 185 5,000 -30 Descending Atlanta TRACON
Mon 04:00:27 PM 33.9500 -84.6667 90° East 163 188 5,000  Level Atlanta TRACON
Mon 04:01:21 PM 33.9333 -84.6167 112° Southeast 164 189 5,000  Level Atlanta TRACON
Mon 04:02:21 PM 33.9333 -84.5667 90° East 147 169 5,000 -211 Level Atlanta TRACON
Mon 04:03:15 PM 33.9167 -84.5167 112° Southeast 135 155 4,600 -579 Descending Atlanta TRACON
Mon 04:04:15 PM 33.9000 -84.4667 112° Southeast 148 170 3,900 -632 Descending Atlanta TRACON
Mon 04:05:09 PM 33.9000 -84.4333 90° East 157 181 3,400 -600 Descending Atlanta TRACON
Mon 04:06:15 PM 33.8833 -84.3667 107° East 159 183 2,700 -714 Descending Atlanta TRACON
Mon 04:07:15 PM 33.8500 -84.3333 140° Southeast 150 173 1,900 -800 Descending Atlanta TRACON
Mon 04:09:00 PM 33.8667 -84.3000 90° East  Level FlightAware Approximate
Mon 04:16:00 PM 33.8756 -84.3020 90° East  Level Estimated

Login

Don't have an account? Register now (free) for customized features, flight alerts, and more!